Time;durP1;ratioP1;P1;durP2;ratioP2;P2;SDS_P1;SDS_P2;PMS_P1;PMS_P2;Temp;Humidity;BMP_temperature;BMP_pressure;BME280_temperature;BME280_humidity;BME280_pressure;Samples;Min_cycle;Max_cycle;Signal;HPM_P1;HPM_P2
2022/06/22 00:02:05;;;;;;;5.00;2.50;;;;;;;16.99;62.84;100006.78;5024679;28;1551425;-78
2022/06/22 00:04:36;;;;;;;4.40;2.38;;;;;;;17.02;62.84;100008.81;5096792;28;20373;-79
2022/06/22 00:07:07;;;;;;;3.70;2.28;;;;;;;17.07;63.15;100009.72;5097073;28;20130;-78
2022/06/22 00:09:40;;;;;;;3.60;2.50;;;;;;;17.10;63.33;100011.81;5096449;28;20056;-78
2022/06/22 00:12:20;;;;;;;3.25;2.22;;;;;;;17.13;63.21;99994.97;5096620;28;20514;-79
2022/06/22 00:14:50;;;;;;;4.10;2.28;;;;;;;17.17;62.99;99993.06;5096971;28;20408;-78
2022/06/22 00:17:25;;;;;;;3.38;2.40;;;;;;;17.08;62.97;99986.84;5096824;28;20052;-78
2022/06/22 00:20:01;;;;;;;3.53;2.00;;;;;;;16.90;63.41;99992.09;5096252;28;20056;-79
2022/06/22 00:22:47;;;;;;;3.20;2.10;;;;;;;16.70;64.13;99987.63;5096851;28;20044;-78
2022/06/22 00:25:22;;;;;;;4.15;2.40;;;;;;;16.59;64.60;99976.94;5096286;28;20400;-78
2022/06/22 00:27:50;;;;;;;4.43;2.60;;;;;;;16.60;64.45;99974.94;5096432;28;20056;-78
2022/06/22 00:30:24;;;;;;;4.65;2.10;;;;;;;16.59;64.05;99979.75;5096460;28;20055;-78
2022/06/22 00:33:03;;;;;;;5.28;2.42;;;;;;;16.57;64.06;99975.69;5096219;28;20059;-78
2022/06/22 00:35:53;;;;;;;4.05;2.70;;;;;;;16.53;64.10;99975.59;5096016;28;20412;-78
2022/06/22 00:38:28;;;;;;;4.15;2.38;;;;;;;16.48;64.41;99964.63;5096189;28;20070;-78
2022/06/22 00:40:59;;;;;;;3.42;1.95;;;;;;;16.47;64.76;99951.75;5096892;28;20052;-78
2022/06/22 00:43:32;;;;;;;3.30;2.30;;;;;;;16.43;65.25;99956.50;5095722;28;20048;-78
2022/06/22 00:46:01;;;;;;;3.60;2.45;;;;;;;16.38;65.41;99946.34;5095981;28;20059;-78
2022/06/22 00:48:36;;;;;;;2.90;2.30;;;;;;;16.36;65.49;99936.66;5096157;28;20393;-78
2022/06/22 00:51:06;;;;;;;3.75;2.60;;;;;;;16.29;65.22;99942.09;5096285;28;20052;-78
2022/06/22 00:53:38;;;;;;;5.13;2.80;;;;;;;16.18;65.27;99942.66;5095603;28;20055;-79
2022/06/22 00:56:19;;;;;;;5.10;2.55;;;;;;;16.11;65.25;99952.94;5096161;28;20063;-79
2022/06/22 00:58:54;;;;;;;3.47;2.50;;;;;;;16.03;65.63;99965.97;5095638;28;20048;-78
2022/06/22 01:01:25;;;;;;;3.60;2.55;;;;;;;15.94;66.07;99973.78;5095901;28;20052;-76
2022/06/22 01:04:03;;;;;;;3.50;2.63;;;;;;;15.89;66.27;99974.06;5095031;28;20404;-77
2022/06/22 01:06:42;;;;;;;5.05;2.70;;;;;;;15.78;66.85;99968.97;5095483;28;20052;-76
2022/06/22 01:09:20;;;;;;;6.18;2.78;;;;;;;15.70;66.97;99972.75;5095523;28;20052;-76
2022/06/22 01:14:46;;;;;;;4.55;2.83;;;;;;;15.39;67.45;99970.72;5095249;28;20059;-76
2022/06/22 01:17:20;;;;;;;3.58;2.53;;;;;;;15.36;67.59;99961.03;5095235;28;20075;-76
2022/06/22 01:19:58;;;;;;;5.57;2.90;;;;;;;15.32;67.75;99959.31;5095603;28;20062;-76
2022/06/22 01:22:44;;;;;;;4.88;2.75;;;;;;;15.29;67.50;99954.41;5097317;28;20051;-76
2022/06/22 01:25:29;;;;;;;3.78;2.83;;;;;;;15.25;67.76;99947.91;5095113;28;20052;-76
2022/06/22 01:28:00;;;;;;;4.10;2.30;;;;;;;15.22;67.57;99950.25;5094979;28;20052;-76
2022/06/22 01:30:32;;;;;;;4.38;2.45;;;;;;;15.19;67.66;99934.13;5095207;28;20052;-75
2022/06/22 01:33:00;;;;;;;3.13;2.25;;;;;;;15.16;67.81;99940.47;5095314;28;20066;-76
2022/06/22 01:35:32;;;;;;;4.57;2.83;;;;;;;15.12;68.01;99938.69;5094919;28;20048;-76
2022/06/22 01:37:59;;;;;;;3.00;2.50;;;;;;;15.07;67.99;99938.97;5100104;28;20044;-76
2022/06/22 01:40:45;;;;;;;4.50;2.53;;;;;;;15.05;67.73;99939.31;5094814;28;20055;-76
2022/06/22 01:43:25;;;;;;;5.28;2.55;;;;;;;14.94;67.86;99933.41;5095039;28;20051;-76
2022/06/22 01:46:00;;;;;;;4.78;2.83;;;;;;;14.86;67.64;99934.38;5094671;28;20055;-76
2022/06/22 01:48:35;;;;;;;5.18;2.70;;;;;;;14.66;68.86;99933.41;5094808;28;20048;-76
2022/06/22 01:51:16;;;;;;;4.72;2.40;;;;;;;14.66;68.84;99943.78;5095021;28;20064;-76
2022/06/22 01:53:49;;;;;;;4.25;3.10;;;;;;;14.58;68.94;99921.16;5094246;28;20048;-76
2022/06/22 01:56:24;;;;;;;5.20;2.90;;;;;;;14.53;69.09;99913.00;5094536;28;20044;-76
2022/06/22 01:59:08;;;;;;;3.28;2.78;;;;;;;14.51;68.98;99915.34;5091884;28;20041;-76
2022/06/22 02:01:41;;;;;;;4.88;2.67;;;;;;;14.47;69.28;99922.81;5074143;28;20049;-76
2022/06/22 02:04:23;;;;;;;4.25;3.00;;;;;;;14.45;68.98;99922.34;5074263;28;20048;-76
2022/06/22 02:09:54;;;;;;;3.20;2.67;;;;;;;14.37;69.63;99937.31;5077743;28;20075;-77
2022/06/22 02:12:28;;;;;;;4.97;2.70;;;;;;;14.30;69.67;99932.31;5073853;28;20060;-76
2022/06/22 02:15:07;;;;;;;5.25;2.70;;;;;;;14.18;69.96;99929.53;5073727;28;20048;-76
2022/06/22 02:17:40;;;;;;;5.93;3.05;;;;;;;14.07;70.10;99919.94;5074431;28;20044;-76
2022/06/22 02:20:27;;;;;;;4.13;2.70;;;;;;;14.06;70.34;99930.34;5073854;28;20053;-76
2022/06/22 02:23:01;;;;;;;5.57;3.00;;;;;;;14.03;70.51;99925.47;5073791;28;20059;-76
2022/06/22 02:25:32;;;;;;;5.97;3.10;;;;;;;14.01;70.41;99928.59;5073216;28;20400;-76
2022/06/22 02:27:59;;;;;;;3.78;2.88;;;;;;;14.02;70.51;99929.41;5074017;28;20056;-76
2022/06/22 02:30:28;;;;;;;3.47;2.67;;;;;;;14.01;70.74;99930.59;5073413;28;20044;-76
2022/06/22 02:32:56;;;;;;;6.73;3.07;;;;;;;13.99;70.80;99932.94;5073669;28;20052;-76
2022/06/22 02:35:23;;;;;;;3.70;2.83;;;;;;;13.96;70.67;99934.44;5073737;28;20487;-76
2022/06/22 02:38:07;;;;;;;3.58;2.58;;;;;;;13.94;70.38;99933.16;5073338;28;20061;-77
2022/06/22 02:46:12;;;;;;;4.32;2.88;;;;;;;13.84;70.32;99956.00;5073306;28;20079;-76
2022/06/22 02:48:42;;;;;;;5.40;3.10;;;;;;;13.67;70.73;99949.47;5073372;28;20048;-76
2022/06/22 02:51:18;;;;;;;4.80;3.15;;;;;;;13.54;71.29;99953.41;5074035;28;20060;-76
2022/06/22 02:53:50;;;;;;;5.38;2.80;;;;;;;13.52;71.28;99962.19;5073579;28;20409;-78
2022/06/22 02:56:21;;;;;;;3.97;2.85;;;;;;;13.53;71.71;99949.00;5065455;28;20045;-76
2022/06/22 02:58:49;;;;;;;3.38;2.88;;;;;;;13.52;71.47;99945.38;5073144;28;20074;-78
2022/06/22 03:01:25;;;;;;;3.90;3.17;;;;;;;13.54;71.27;99942.22;5092959;28;20074;-77
2022/06/22 03:03:56;;;;;;;4.25;3.05;;;;;;;13.54;71.05;99939.41;5092878;28;20412;-77
2022/06/22 03:06:29;;;;;;;3.85;3.00;;;;;;;13.52;70.90;99930.56;5092991;28;20075;-75
2022/06/22 03:08:58;;;;;;;4.25;2.85;;;;;;;13.50;71.41;99922.53;5094240;28;20058;-76
2022/06/22 03:11:25;;;;;;;4.35;3.33;;;;;;;13.47;71.62;99923.22;5093163;28;20048;-74
2022/06/22 03:13:56;;;;;;;4.97;3.75;;;;;;;13.38;72.05;99914.13;5092918;28;20052;-76
2022/06/22 03:16:30;;;;;;;6.05;3.28;;;;;;;13.38;71.80;99914.94;5092929;28;20048;-76
2022/06/22 03:19:02;;;;;;;6.90;3.55;;;;;;;13.36;71.68;99916.44;5092842;28;20044;-76
2022/06/22 03:21:29;;;;;;;10.07;3.70;;;;;;;13.34;71.59;99918.78;5092593;28;20052;-76
2022/06/22 03:24:06;;;;;;;7.82;4.07;;;;;;;13.31;72.12;99928.69;5092598;28;20058;-76
2022/06/22 03:26:39;;;;;;;10.43;4.05;;;;;;;13.30;72.30;99941.00;5092563;28;20051;-77
2022/06/22 03:29:15;;;;;;;4.05;2.83;;;;;;;13.35;72.31;99957.56;5092625;28;20496;-75
2022/06/22 03:31:48;;;;;;;4.57;3.30;;;;;;;13.37;72.09;99955.25;5092644;28;20070;-75
2022/06/22 03:34:19;;;;;;;5.63;3.33;;;;;;;13.42;71.92;99964.56;5092266;28;20048;-77
2022/06/22 03:36:52;;;;;;;5.97;3.40;;;;;;;13.46;71.52;99949.56;5092680;28;20485;-76
2022/06/22 03:39:24;;;;;;;5.43;3.30;;;;;;;13.52;71.23;99948.19;5092553;28;20044;-75
2022/06/22 03:41:57;;;;;;;5.28;3.05;;;;;;;13.56;71.70;99937.09;5092958;28;20074;-75
2022/06/22 03:44:30;;;;;;;7.47;3.25;;;;;;;13.60;71.62;99927.66;5092236;28;20059;-76
2022/06/22 03:47:05;;;;;;;5.32;3.20;;;;;;;13.65;71.12;99929.44;5092396;28;20546;-76
2022/06/22 03:49:38;;;;;;;5.55;3.33;;;;;;;13.70;71.15;99919.97;5092533;28;20146;-75
2022/06/22 03:52:14;;;;;;;5.85;3.00;;;;;;;13.78;70.57;99919.06;5092826;28;20056;-75
2022/06/22 03:54:47;;;;;;;3.90;3.03;;;;;;;13.79;70.52;99915.88;5092599;28;20059;-76
2022/06/22 03:57:19;;;;;;;7.18;3.85;;;;;;;13.85;70.78;99915.66;5092389;28;20066;-76
2022/06/22 03:59:48;;;;;;;5.03;3.33;;;;;;;13.75;70.75;99909.38;5081580;28;20052;-76
2022/06/22 04:02:18;;;;;;;6.30;3.28;;;;;;;13.76;70.38;99912.97;5071970;28;20390;-76
2022/06/22 04:04:50;;;;;;;5.38;3.28;;;;;;;13.82;70.00;99911.59;5071588;28;20048;-76
2022/06/22 04:07:17;;;;;;;5.68;3.15;;;;;;;13.88;70.07;99907.38;5072099;28;20067;-75
2022/06/22 04:09:50;;;;;;;5.22;3.63;;;;;;;13.93;69.94;99906.31;5072245;28;20052;-75
2022/06/22 04:12:23;;;;;;;6.53;3.80;;;;;;;14.02;69.80;99909.81;5071621;28;20056;-76
2022/06/22 04:14:57;;;;;;;3.45;3.13;;;;;;;14.09;69.46;99914.81;5072057;28;20491;-76
2022/06/22 04:17:31;;;;;;;8.57;4.00;;;;;;;14.16;69.72;99915.88;5071748;28;20048;-75
2022/06/22 04:20:05;;;;;;;6.03;3.80;;;;;;;14.22;69.43;99919.25;5072049;28;20048;-75
2022/06/22 04:22:38;;;;;;;5.18;3.90;;;;;;;14.17;69.88;99922.28;5072264;28;20063;-76
2022/06/22 04:25:12;;;;;;;5.57;4.10;;;;;;;14.28;69.80;99922.59;5072022;28;20052;-75
2022/06/22 04:27:45;;;;;;;5.55;4.00;;;;;;;14.41;69.86;99913.03;5071793;28;20048;-75
2022/06/22 04:30:17;;;;;;;5.65;4.13;;;;;;;14.52;69.18;99914.16;5071795;28;20056;-75
2022/06/22 04:32:54;;;;;;;5.53;3.80;;;;;;;14.60;69.43;99913.22;5071980;28;20059;-75
2022/06/22 04:35:31;;;;;;;6.50;4.20;;;;;;;14.67;69.23;99920.22;5074688;28;20044;-75
2022/06/22 04:38:04;;;;;;;6.97;3.70;;;;;;;14.78;69.33;99922.16;5071508;28;20469;-75
2022/06/22 04:40:41;;;;;;;6.32;3.70;;;;;;;14.91;68.67;99922.09;5071893;28;20196;-75
2022/06/22 04:43:10;;;;;;;4.43;3.70;;;;;;;15.02;68.32;99923.22;5072099;28;20493;-76
2022/06/22 04:45:41;;;;;;;6.80;3.88;;;;;;;15.14;68.41;99925.97;5071581;28;20057;-76
2022/06/22 04:48:14;;;;;;;6.38;3.25;;;;;;;15.23;67.85;99923.00;5072233;28;20063;-75
2022/06/22 04:50:43;;;;;;;6.18;3.20;;;;;;;15.31;67.48;99930.44;5074887;28;20381;-75
2022/06/22 04:53:15;;;;;;;;;;;;;;;15.25;67.60;99926.25;5075539;28;20404;-76
2022/06/22 04:55:43;;;;;;;5.85;3.67;;;;;;;15.36;67.89;99927.34;5075394;28;19931;-76
2022/06/22 04:58:27;;;;;;;6.05;3.72;;;;;;;15.53;67.31;99931.00;5075321;28;20067;-75
2022/06/22 05:00:54;;;;;;;6.00;3.28;;;;;;;15.62;67.23;99929.66;5075287;28;20052;-76
2022/06/22 05:03:23;;;;;;;6.78;4.20;;;;;;;15.71;66.73;99935.06;5074972;28;20412;-75
2022/06/22 05:05:52;;;;;;;4.72;3.38;;;;;;;15.78;66.44;99938.09;5074971;28;20472;-77
2022/06/22 05:08:25;;;;;;;7.75;4.30;;;;;;;15.79;66.74;99944.50;5074914;28;20056;-75
2022/06/22 05:10:57;;;;;;;6.38;3.90;;;;;;;15.91;66.62;99950.03;5075145;28;20055;-75
2022/06/22 05:13:29;;;;;;;6.28;4.10;;;;;;;16.00;66.32;99947.03;5075112;28;20064;-75
2022/06/22 05:15:58;;;;;;;5.75;3.85;;;;;;;16.05;66.14;99952.38;5074496;28;20052;-75
2022/06/22 05:18:29;;;;;;;;;;;;;;;16.09;66.68;99953.28;5075141;28;20063;-75
2022/06/22 05:21:04;;;;;;;6.63;3.97;;;;;;;16.18;66.55;99959.53;5075464;28;19921;-75
2022/06/22 05:23:33;;;;;;;5.63;4.20;;;;;;;16.29;66.46;99958.97;5074623;28;20489;-76
2022/06/22 05:26:06;;;;;;;8.48;4.60;;;;;;;16.40;66.34;99969.28;5074652;28;20048;-76
2022/06/22 05:28:37;;;;;;;5.90;4.05;;;;;;;16.54;66.21;99970.78;5074640;28;20067;-75
2022/06/22 05:31:08;;;;;;;7.13;4.30;;;;;;;16.61;65.66;99980.19;5074844;28;20055;-76
2022/06/22 05:33:42;;;;;;;7.03;4.43;;;;;;;16.75;65.02;99973.25;5074712;28;20052;-76
2022/06/22 05:36:13;;;;;;;6.72;4.55;;;;;;;16.81;65.07;99975.44;5074447;28;20053;-75
2022/06/22 05:38:46;;;;;;;6.93;5.32;;;;;;;16.96;64.64;99975.75;5074435;28;20057;-76
2022/06/22 05:41:16;;;;;;;9.52;5.70;;;;;;;17.04;64.31;99981.13;5074321;28;20472;-75
2022/06/22 05:43:44;;;;;;;12.23;7.53;;;;;;;17.15;64.19;99980.53;5074602;28;20064;-76
2022/06/22 05:46:12;;;;;;;12.55;7.72;;;;;;;17.26;63.47;99978.78;5074044;28;20049;-75
2022/06/22 05:48:44;;;;;;;14.23;8.68;;;;;;;17.34;62.84;99983.34;5074550;28;20068;-75
2022/06/22 05:51:19;;;;;;;13.00;8.30;;;;;;;17.45;62.61;99983.56;5074251;28;20056;-75
2022/06/22 05:53:53;;;;;;;10.38;6.85;;;;;;;17.58;62.33;99992.66;5074046;28;20048;-76
2022/06/22 05:56:26;;;;;;;7.22;5.55;;;;;;;17.64;62.10;99988.34;5074516;28;20056;-75
2022/06/22 05:58:59;;;;;;;13.68;7.60;;;;;;;17.80;61.71;99983.38;5074814;28;20106;-75
2022/06/22 06:01:32;;;;;;;7.53;6.47;;;;;;;17.90;61.47;99981.97;5092948;28;20052;-75
2022/06/22 06:04:09;;;;;;;7.95;5.97;;;;;;;18.06;60.62;99993.13;5093838;28;20047;-76
2022/06/22 06:06:41;;;;;;;7.72;5.40;;;;;;;18.16;60.60;99986.81;5094036;28;20055;-77
2022/06/22 06:09:17;;;;;;;7.93;5.57;;;;;;;18.30;60.50;99991.91;5094027;28;20059;-76
2022/06/22 06:11:49;;;;;;;7.03;5.28;;;;;;;18.40;60.38;99996.88;5094258;28;20079;-76
2022/06/22 06:14:24;;;;;;;6.80;5.43;;;;;;;18.52;59.78;99984.59;5093749;28;20063;-76
2022/06/22 06:16:53;;;;;;;11.93;5.78;;;;;;;18.59;59.82;99993.13;5094072;28;20071;-76
2022/06/22 06:19:29;;;;;;;6.82;4.75;;;;;;;18.69;59.94;99982.38;5093882;28;20055;-76
2022/06/22 06:22:00;;;;;;;7.72;5.25;;;;;;;18.77;59.88;99986.94;5093673;28;20056;-76
2022/06/22 06:24:33;;;;;;;7.22;5.30;;;;;;;18.89;59.41;99991.56;5093866;28;20048;-76
2022/06/22 06:29:56;;;;;;;7.05;4.80;;;;;;;19.13;58.55;99988.25;5093949;28;20063;-76
2022/06/22 06:32:34;;;;;;;5.93;4.32;;;;;;;19.22;57.60;99988.75;5093825;28;20052;-78
2022/06/22 06:35:11;;;;;;;7.53;5.07;;;;;;;19.38;57.59;99985.72;5093594;28;20079;-76
2022/06/22 06:37:47;;;;;;;7.25;4.65;;;;;;;19.56;57.39;99980.25;5093842;28;20055;-77
2022/06/22 06:40:21;;;;;;;8.00;4.90;;;;;;;19.73;56.47;99978.84;5093582;28;20052;-76
2022/06/22 06:42:53;;;;;;;5.68;4.93;;;;;;;19.90;56.31;99979.41;5093368;28;20047;-76
2022/06/22 06:45:24;;;;;;;5.78;4.20;;;;;;;20.08;55.33;99978.34;5093557;28;20052;-77
2022/06/22 06:47:58;;;;;;;5.00;4.18;;;;;;;20.17;55.29;99980.03;5093326;28;20044;-76
2022/06/22 06:50:32;;;;;;;7.50;4.20;;;;;;;20.28;54.51;99978.91;5093294;28;20404;-76
2022/06/22 06:53:07;;;;;;;7.57;4.25;;;;;;;20.38;54.40;99977.34;5094338;28;20055;-76
2022/06/22 06:55:42;;;;;;;6.00;3.95;;;;;;;20.46;54.04;99976.19;5093447;28;20063;-77
2022/06/22 06:58:19;;;;;;;5.50;3.50;;;;;;;20.57;53.17;99970.59;5093245;28;20052;-76
2022/06/22 07:00:48;;;;;;;6.13;3.47;;;;;;;20.66;52.89;99961.78;5093311;28;20052;-76
2022/06/22 07:03:20;;;;;;;8.73;3.80;;;;;;;20.70;52.78;99967.47;5092956;28;20052;-76
2022/06/22 07:05:50;;;;;;;6.78;3.60;;;;;;;20.78;52.92;99961.44;5093087;28;20081;-77
2022/06/22 07:08:19;;;;;;;6.13;3.35;;;;;;;20.89;52.39;99967.16;5092794;28;20048;-76
2022/06/22 07:10:50;;;;;;;;;;;;;;;20.74;52.28;99962.66;5093271;28;20059;-77
2022/06/22 07:13:25;;;;;;;6.63;3.30;;;;;;;20.91;52.54;99959.09;5093570;28;19942;-76
2022/06/22 07:15:57;;;;;;;5.85;3.10;;;;;;;21.02;51.71;99954.28;5092934;28;20097;-76
2022/06/22 07:18:36;;;;;;;5.40;3.17;;;;;;;21.13;51.03;99950.69;5092725;28;20403;-76
2022/06/22 07:21:15;;;;;;;4.90;2.72;;;;;;;21.28;51.18;99952.34;5092202;28;20058;-77
2022/06/22 07:23:47;;;;;;;5.47;3.10;;;;;;;21.44;50.57;99950.00;5092840;28;20051;-76
2022/06/22 07:26:23;;;;;;;5.07;2.70;;;;;;;21.54;50.17;99942.72;5093172;28;20078;-76
2022/06/22 07:28:58;;;;;;;5.15;2.80;;;;;;;21.63;50.12;99933.84;5092848;28;20412;-77
2022/06/22 07:31:31;;;;;;;5.68;2.85;;;;;;;21.65;50.65;99925.75;5092492;28;20480;-76
2022/06/22 07:34:04;;;;;;;5.47;3.15;;;;;;;21.73;50.08;99921.69;5093024;28;20052;-76
2022/06/22 07:36:42;;;;;;;5.05;3.10;;;;;;;21.82;49.83;99924.13;5092608;28;20048;-76
2022/06/22 07:39:15;;;;;;;4.55;3.08;;;;;;;21.89;49.84;99922.09;5092326;28;20071;-76
2022/06/22 07:41:43;;;;;;;6.28;3.47;;;;;;;22.06;50.02;99916.81;5092526;28;20510;-76
2022/06/22 07:44:16;;;;;;;4.82;3.13;;;;;;;22.16;50.28;99915.19;5092245;28;20539;-76
2022/06/22 07:46:50;;;;;;;7.35;3.10;;;;;;;22.22;49.26;99916.41;5092546;28;20063;-77
2022/06/22 07:49:22;;;;;;;6.75;3.40;;;;;;;22.39;49.54;99918.44;5091926;28;20063;-76
2022/06/22 07:51:53;;;;;;;6.95;3.45;;;;;;;22.48;48.10;99921.63;5092261;28;20051;-76
2022/06/22 07:54:26;;;;;;;7.55;3.35;;;;;;;22.54;47.98;99919.19;5092194;28;20048;-77
2022/06/22 07:57:13;;;;;;;4.03;2.83;;;;;;;22.87;48.14;99925.59;5092306;28;20052;-77
2022/06/22 07:59:47;;;;;;;3.92;2.80;;;;;;;23.60;45.15;99921.97;5091926;28;20047;-77
2022/06/22 08:02:18;;;;;;;4.47;2.45;;;;;;;24.73;42.89;99917.66;5091801;28;20496;-76
2022/06/22 08:04:52;;;;;;;4.43;2.83;;;;;;;25.79;40.09;99916.63;5092512;28;20056;-77
2022/06/22 08:07:24;;;;;;;4.88;2.45;;;;;;;26.74;38.25;99908.81;5091965;28;20071;-77
2022/06/22 08:10:00;;;;;;;3.00;1.90;;;;;;;27.32;36.28;99902.72;5092100;28;20054;-76
2022/06/22 08:12:33;;;;;;;5.20;2.42;;;;;;;28.47;34.96;99905.56;5092339;28;20052;-77
2022/06/22 08:15:05;;;;;;;2.95;1.80;;;;;;;29.37;31.93;99905.84;5091960;28;20052;-77
2022/06/22 08:17:41;;;;;;;2.97;1.90;;;;;;;30.24;30.99;99919.78;5092298;28;20052;-77
2022/06/22 08:20:11;;;;;;;3.42;1.75;;;;;;;31.33;29.24;99912.50;5091906;28;20056;-77
2022/06/22 08:22:43;;;;;;;4.40;1.77;;;;;;;32.17;28.11;99916.50;5091559;28;20067;-77
2022/06/22 08:25:11;;;;;;;3.25;1.60;;;;;;;33.17;27.18;99925.66;5095720;28;20381;-78
2022/06/22 08:27:39;;;;;;;6.38;2.30;;;;;;;34.14;25.21;99929.63;5095875;28;20048;-78
2022/06/22 08:30:09;;;;;;;5.53;2.20;;;;;;;34.64;24.06;99914.66;5095866;28;20110;-78
2022/06/22 08:32:41;;;;;;;3.33;1.88;;;;;;;35.36;23.54;99920.19;5096219;28;20061;-78
2022/06/22 08:35:15;;;;;;;4.85;1.50;;;;;;;36.41;22.28;99920.75;5096054;28;20048;-78
2022/06/22 08:37:49;;;;;;;4.72;2.10;;;;;;;37.04;20.87;99918.03;5095481;28;20412;-78
2022/06/22 08:40:25;;;;;;;4.13;1.63;;;;;;;37.07;21.09;99922.84;5095408;28;20059;-78
2022/06/22 08:42:59;;;;;;;3.85;1.60;;;;;;;37.71;20.90;99920.00;5095989;28;20044;-78
2022/06/22 08:45:50;;;;;;;3.38;1.60;;;;;;;39.02;19.93;99923.03;5095769;28;20055;-78
2022/06/22 08:48:36;;;;;;;2.80;1.45;;;;;;;39.84;18.86;99919.06;5095353;28;20074;-76
2022/06/22 08:51:29;;;;;;;4.63;2.13;;;;;;;40.49;17.17;99922.88;5095337;28;20048;-77
2022/06/22 08:54:16;;;;;;;2.88;1.50;;;;;;;40.79;17.30;99920.09;5095502;28;20056;-78
2022/06/22 08:56:52;;;;;;;3.00;1.65;;;;;;;41.06;16.80;99911.72;5095781;28;20047;-76
2022/06/22 08:59:51;;;;;;;4.22;1.77;;;;;;;41.06;16.43;99915.41;5095607;28;20408;-77
2022/06/22 09:02:59;;;;;;;2.88;1.50;;;;;;;41.69;16.77;99912.81;5094876;28;20070;-76
2022/06/22 09:05:55;;;;;;;3.83;1.65;;;;;;;42.49;16.02;99905.53;5093315;28;20052;-76
2022/06/22 09:08:41;;;;;;;4.32;1.58;;;;;;;42.99;15.06;99903.28;5095659;28;20066;-77
2022/06/22 09:11:21;;;;;;;3.63;1.40;;;;;;;43.41;14.22;99918.34;5095476;28;20389;-76
2022/06/22 09:14:17;;;;;;;2.67;1.40;;;;;;;43.03;14.84;99914.66;5095519;28;20059;-76
2022/06/22 09:17:09;;;;;;;3.25;1.42;;;;;;;43.57;14.08;99920.16;5095378;28;20055;-77
2022/06/22 09:19:59;;;;;;;1.73;1.23;;;;;;;44.02;14.25;99918.56;5095491;28;20048;-77
2022/06/22 09:22:41;;;;;;;3.15;1.45;;;;;;;44.35;13.85;99920.06;5095982;28;20044;-77
2022/06/22 09:25:18;;;;;;;3.67;1.60;;;;;;;44.91;13.50;99915.09;5094876;28;20052;-77
2022/06/22 09:27:54;;;;;;;2.70;1.20;;;;;;;44.62;13.56;99925.13;5096570;28;20154;-77
2022/06/22 09:30:45;;;;;;;3.00;1.30;;;;;;;45.44;13.56;99925.88;5094593;28;20052;-77
2022/06/22 09:33:40;;;;;;;3.72;1.55;;;;;;;45.29;12.83;99925.72;5078151;28;20048;-77
2022/06/22 09:36:36;;;;;;;2.33;1.30;;;;;;;45.77;12.52;99926.38;5094562;28;20067;-76
2022/06/22 09:39:22;;;;;;;2.50;1.52;;;;;;;46.24;12.42;99922.38;5095042;28;20044;-76
2022/06/22 09:42:13;;;;;;;2.53;1.50;;;;;;;46.38;12.15;99934.84;5094754;28;20055;-77
2022/06/22 09:45:04;;;;;;;3.65;1.23;;;;;;;46.28;11.53;99934.59;5083059;28;20064;-76
2022/06/22 09:47:49;;;;;;;3.50;1.50;;;;;;;46.11;11.87;99932.13;5095179;28;20484;-78
2022/06/22 09:50:32;;;;;;;5.07;2.55;;;;;;;46.09;12.76;99939.97;5094481;28;20059;-78
2022/06/22 09:53:37;;;;;;;3.65;1.50;;;;;;;45.90;12.87;99938.03;5094397;28;20044;-78
2022/06/22 09:56:41;;;;;;;3.10;1.48;;;;;;;46.73;11.62;99938.38;5094398;28;20062;-78
2022/06/22 09:59:35;;;;;;;2.53;1.45;;;;;;;46.68;12.47;99937.16;5094196;28;20533;-78
2022/06/22 10:02:23;;;;;;;20.38;11.43;;;;;;;46.81;11.94;99936.28;5093990;28;20052;-78
2022/06/22 10:05:30;;;;;;;11.65;5.95;;;;;;;47.48;11.51;99926.59;5094406;28;20056;-78
2022/06/22 10:08:10;;;;;;;2.72;1.75;;;;;;;47.52;11.23;99918.94;5094709;28;20127;-79
2022/06/22 10:10:50;;;;;;;2.22;1.25;;;;;;;47.14;11.85;99928.47;5094081;28;20056;-78
2022/06/22 10:13:41;;;;;;;2.75;1.55;;;;;;;46.08;11.22;99929.56;5094702;28;20507;-79
2022/06/22 10:16:34;;;;;;;3.65;1.52;;;;;;;46.19;11.86;99923.34;5094230;28;20480;-78
2022/06/22 10:19:23;;;;;;;3.03;1.52;;;;;;;46.05;12.01;99916.78;5094251;28;20055;-78
2022/06/22 10:22:06;;;;;;;3.10;1.50;;;;;;;46.04;11.88;99908.53;5093585;28;20059;-79
2022/06/22 10:24:55;;;;;;;3.00;1.75;;;;;;;46.69;11.79;99903.38;5093746;28;20052;-78
2022/06/22 10:27:43;;;;;;;3.33;1.70;;;;;;;47.21;10.97;99893.72;5093847;28;20134;-78
2022/06/22 10:30:20;;;;;;;3.42;1.60;;;;;;;47.00;11.33;99897.63;5093557;28;20504;-78
2022/06/22 10:33:09;;;;;;;2.22;1.40;;;;;;;47.16;11.28;99889.59;5093805;28;20056;-78
2022/06/22 10:35:58;;;;;;;3.75;1.73;;;;;;;47.85;10.98;99883.69;5093735;28;20401;-78
2022/06/22 10:38:48;;;;;;;12.18;1.92;;;;;;;47.95;10.61;99884.69;5093624;28;20060;-78
2022/06/22 10:47:24;;;;;;;2.83;1.67;;;;;;;47.74;10.79;99875.25;5096283;28;20059;-78
2022/06/22 10:50:09;;;;;;;8.02;1.95;;;;;;;47.81;10.55;99870.72;5093117;28;20048;-78
2022/06/22 10:52:56;;;;;;;2.13;1.20;;;;;;;47.81;10.94;99870.72;5093442;28;20056;-78
2022/06/22 10:55:42;;;;;;;2.83;1.70;;;;;;;48.30;10.51;99869.44;5093165;28;20063;-77
2022/06/22 10:58:54;;;;;;;2.50;1.65;;;;;;;48.37;10.48;99866.47;5093397;28;20056;-76
2022/06/22 11:01:39;;;;;;;2.92;1.45;;;;;;;48.29;10.19;99871.63;5067764;28;20079;-78
2022/06/22 11:04:36;;;;;;;3.63;1.30;;;;;;;48.30;10.74;99875.34;5093163;28;20063;-79
2022/06/22 11:07:18;;;;;;;;;;;;;;;48.70;10.60;99865.72;5093312;28;20075;-78
2022/06/22 11:10:00;;;;;;;2.58;1.70;;;;;;;48.89;9.89;99868.19;5038370;28;19920;-78
2022/06/22 11:12:47;;;;;;;5.45;2.13;;;;;;;48.94;10.48;99873.09;5092419;28;20385;-78
2022/06/22 11:15:52;;;;;;;2.55;1.30;;;;;;;48.72;9.82;99874.78;5092972;28;20075;-78
2022/06/22 11:18:51;;;;;;;2.15;1.50;;;;;;;48.52;10.00;99876.66;5093008;28;20070;-78
2022/06/22 11:21:31;;;;;;;4.00;2.50;;;;;;;48.49;10.00;99884.56;5098364;28;20059;-79
2022/06/22 11:24:46;;;;;;;2.10;1.63;;;;;;;48.54;10.15;99870.94;5092848;28;20048;-78
2022/06/22 11:33:21;;;;;;;4.65;1.50;;;;;;;49.20;9.80;99871.72;5093544;28;20055;-78
2022/06/22 11:36:07;;;;;;;3.33;1.70;;;;;;;49.05;9.90;99878.56;5092712;28;20062;-78
2022/06/22 11:39:02;;;;;;;3.85;1.50;;;;;;;48.91;10.25;99871.31;5092580;28;20054;-79
2022/06/22 11:41:47;;;;;;;2.60;1.42;;;;;;;49.45;9.41;99868.78;5092524;28;20423;-78
2022/06/22 11:47:55;;;;;;;3.80;1.52;;;;;;;48.85;10.29;99870.78;5086027;28;20067;-78
2022/06/22 11:50:31;;;;;;;4.82;2.42;;;;;;;49.10;9.85;99883.47;5092897;28;20048;-78
2022/06/22 11:53:16;;;;;;;3.45;2.03;;;;;;;49.50;9.45;99875.84;5092249;28;20056;-79
2022/06/22 11:55:49;;;;;;;2.38;1.35;;;;;;;49.21;10.10;99872.53;5092414;28;20051;-79
2022/06/22 11:58:32;;;;;;;3.38;1.58;;;;;;;49.10;9.60;99873.78;5092327;28;20051;-79
2022/06/22 12:01:46;;;;;;;3.50;1.30;;;;;;;49.00;9.10;99876.63;5075918;28;20052;-78
2022/06/22 12:04:39;;;;;;;2.38;1.20;;;;;;;48.12;9.78;99875.19;5040736;28;20056;-79
2022/06/22 12:07:23;;;;;;;2.60;1.42;;;;;;;47.83;10.07;99883.50;5076344;28;20408;-79
2022/06/22 12:10:10;;;;;;;2.95;1.58;;;;;;;48.29;9.84;99883.44;5076488;28;20056;-78
2022/06/22 12:13:00;;;;;;;2.57;1.50;;;;;;;47.81;9.59;99880.34;5076654;28;20409;-78
2022/06/22 12:15:42;;;;;;;3.00;1.30;;;;;;;46.69;10.38;99870.19;5076112;28;20174;-78
2022/06/22 12:18:30;;;;;;;2.28;1.33;;;;;;;47.13;10.45;99867.94;5076292;28;20053;-79
2022/06/22 12:21:17;;;;;;;3.75;1.33;;;;;;;45.50;11.06;99879.44;5075840;28;20048;-79
2022/06/22 12:23:54;;;;;;;2.60;1.48;;;;;;;42.95;12.64;99877.22;5076417;28;20504;-78
2022/06/22 12:26:32;;;;;;;2.88;1.30;;;;;;;43.62;12.96;99867.81;5075958;28;20048;-79
2022/06/22 12:29:27;;;;;;;3.15;1.48;;;;;;;43.85;12.77;99874.06;5075953;28;20052;-79
2022/06/22 12:32:00;;;;;;;2.63;1.27;;;;;;;43.92;13.35;99874.19;5079680;28;20049;-79
2022/06/22 12:34:33;;;;;;;1.85;1.20;;;;;;;44.23;12.99;99882.66;5075901;28;20076;-79
2022/06/22 12:37:07;;;;;;;2.00;1.33;;;;;;;44.23;12.55;99876.78;5076195;28;20052;-78
2022/06/22 12:39:38;;;;;;;2.50;1.45;;;;;;;44.77;12.60;99870.28;5075960;28;20059;-79
2022/06/22 12:42:30;;;;;;;3.22;1.48;;;;;;;44.57;12.30;99871.00;5076728;28;20052;-78
2022/06/22 12:45:17;;;;;;;1.60;1.05;;;;;;;43.43;13.68;99880.44;5075797;28;20063;-78
2022/06/22 12:48:05;;;;;;;2.70;1.45;;;;;;;43.81;13.02;99874.44;5075910;28;20057;-79
2022/06/22 12:51:09;;;;;;;2.75;1.20;;;;;;;44.10;12.70;99865.84;5075462;28;20052;-78
2022/06/22 12:53:43;;;;;;;2.30;1.40;;;;;;;43.96;12.81;99868.78;5034276;28;20056;-78